sensor_id;sensor_type;location;lat;lon;timestamp;temperature;humidity
10306;DHT22;5198;52.382;9.020;2023-09-19T00:03:43;17.40;99.90
10306;DHT22;5198;52.382;9.020;2023-09-19T00:07:46;17.40;99.90
10306;DHT22;5198;52.382;9.020;2023-09-19T00:11:49;17.30;99.90
10306;DHT22;5198;52.382;9.020;2023-09-19T00:15:53;17.30;99.90
10306;DHT22;5198;52.382;9.020;2023-09-19T00:19:58;17.30;99.90
10306;DHT22;5198;52.382;9.020;2023-09-19T00:24:14;17.30;99.90
10306;DHT22;5198;52.382;9.020;2023-09-19T00:28:19;17.30;99.90
10306;DHT22;5198;52.382;9.020;2023-09-19T00:32:23;17.30;99.90
10306;DHT22;5198;52.382;9.020;2023-09-19T00:36:27;17.20;99.90
10306;DHT22;5198;52.382;9.020;2023-09-19T00:40:30;17.30;99.90
10306;DHT22;5198;52.382;9.020;2023-09-19T00:44:34;17.30;99.90
10306;DHT22;5198;52.382;9.020;2023-09-19T00:48:40;17.30;99.90
10306;DHT22;5198;52.382;9.020;2023-09-19T00:52:47;17.30;99.90
10306;DHT22;5198;52.382;9.020;2023-09-19T00:56:51;17.30;99.90
10306;DHT22;5198;52.382;9.020;2023-09-19T01:01:02;17.30;99.90
10306;DHT22;5198;52.382;9.020;2023-09-19T01:05:09;17.20;99.90
10306;DHT22;5198;52.382;9.020;2023-09-19T01:09:13;17.20;99.90
10306;DHT22;5198;52.382;9.020;2023-09-19T01:13:19;17.20;99.90
10306;DHT22;5198;52.382;9.020;2023-09-19T01:17:26;17.20;99.90
10306;DHT22;5198;52.382;9.020;2023-09-19T01:21:36;17.20;99.90
10306;DHT22;5198;52.382;9.020;2023-09-19T01:25:55;17.20;99.90
10306;DHT22;5198;52.382;9.020;2023-09-19T01:30:10;17.20;99.90
10306;DHT22;5198;52.382;9.020;2023-09-19T01:34:13;17.20;99.90
10306;DHT22;5198;52.382;9.020;2023-09-19T01:38:16;17.10;99.90
10306;DHT22;5198;52.382;9.020;2023-09-19T01:46:59;17.20;99.90
10306;DHT22;5198;52.382;9.020;2023-09-19T01:51:05;17.10;99.90
10306;DHT22;5198;52.382;9.020;2023-09-19T01:55:09;17.10;99.90
10306;DHT22;5198;52.382;9.020;2023-09-19T01:59:13;17.10;99.90
10306;DHT22;5198;52.382;9.020;2023-09-19T02:03:18;17.00;99.90
10306;DHT22;5198;52.382;9.020;2023-09-19T02:07:24;16.90;99.90
10306;DHT22;5198;52.382;9.020;2023-09-19T02:11:29;16.90;99.90
10306;DHT22;5198;52.382;9.020;2023-09-19T02:15:32;16.80;99.90
10306;DHT22;5198;52.382;9.020;2023-09-19T02:19:38;16.80;99.90
10306;DHT22;5198;52.382;9.020;2023-09-19T02:23:45;16.80;99.90
10306;DHT22;5198;52.382;9.020;2023-09-19T02:27:49;16.70;99.90
10306;DHT22;5198;52.382;9.020;2023-09-19T02:31:55;16.60;99.90
10306;DHT22;5198;52.382;9.020;2023-09-19T02:35:59;16.60;99.90
10306;DHT22;5198;52.382;9.020;2023-09-19T02:40:05;16.60;99.90
10306;DHT22;5198;52.382;9.020;2023-09-19T02:44:20;16.60;99.90
10306;DHT22;5198;52.382;9.020;2023-09-19T02:48:25;16.60;99.90
10306;DHT22;5198;52.382;9.020;2023-09-19T02:52:29;16.60;99.90
10306;DHT22;5198;52.382;9.020;2023-09-19T02:56:32;16.60;99.90
10306;DHT22;5198;52.382;9.020;2023-09-19T03:00:38;16.60;99.90
10306;DHT22;5198;52.382;9.020;2023-09-19T03:04:43;16.60;99.90
10306;DHT22;5198;52.382;9.020;2023-09-19T03:08:50;16.60;99.90
10306;DHT22;5198;52.382;9.020;2023-09-19T03:12:53;16.60;99.90
10306;DHT22;5198;52.382;9.020;2023-09-19T03:16:56;16.60;99.90
10306;DHT22;5198;52.382;9.020;2023-09-19T03:20:59;16.50;99.90
10306;DHT22;5198;52.382;9.020;2023-09-19T03:25:04;16.50;99.90
10306;DHT22;5198;52.382;9.020;2023-09-19T03:29:24;16.50;99.90
10306;DHT22;5198;52.382;9.020;2023-09-19T03:33:27;16.50;99.90
10306;DHT22;5198;52.382;9.020;2023-09-19T03:41:51;16.50;99.90
10306;DHT22;5198;52.382;9.020;2023-09-19T03:45:54;16.50;99.90
10306;DHT22;5198;52.382;9.020;2023-09-19T03:49:57;16.50;99.90
10306;DHT22;5198;52.382;9.020;2023-09-19T03:54:00;16.40;99.90
10306;DHT22;5198;52.382;9.020;2023-09-19T03:58:07;16.40;99.90
10306;DHT22;5198;52.382;9.020;2023-09-19T04:02:10;16.30;99.90
10306;DHT22;5198;52.382;9.020;2023-09-19T04:06:24;16.30;99.90
10306;DHT22;5198;52.382;9.020;2023-09-19T04:10:29;16.20;99.90
10306;DHT22;5198;52.382;9.020;2023-09-19T04:14:33;16.20;99.90
10306;DHT22;5198;52.382;9.020;2023-09-19T04:18:36;16.20;99.90
10306;DHT22;5198;52.382;9.020;2023-09-19T04:22:41;16.10;99.90
10306;DHT22;5198;52.382;9.020;2023-09-19T04:26:44;16.00;99.90
10306;DHT22;5198;52.382;9.020;2023-09-19T04:30:48;16.00;99.90
10306;DHT22;5198;52.382;9.020;2023-09-19T04:34:51;16.00;99.90
10306;DHT22;5198;52.382;9.020;2023-09-19T04:38:58;16.00;99.90
10306;DHT22;5198;52.382;9.020;2023-09-19T04:43:00;15.90;99.90
10306;DHT22;5198;52.382;9.020;2023-09-19T04:47:05;15.90;99.90
10306;DHT22;5198;52.382;9.020;2023-09-19T04:51:09;15.90;99.90
10306;DHT22;5198;52.382;9.020;2023-09-19T04:55:12;15.90;99.90
10306;DHT22;5198;52.382;9.020;2023-09-19T04:59:22;15.90;99.90
10306;DHT22;5198;52.382;9.020;2023-09-19T05:03:26;15.90;99.90
10306;DHT22;5198;52.382;9.020;2023-09-19T05:07:29;15.90;99.90
10306;DHT22;5198;52.382;9.020;2023-09-19T05:11:32;15.80;99.90
10306;DHT22;5198;52.382;9.020;2023-09-19T05:15:35;15.80;99.90
10306;DHT22;5198;52.382;9.020;2023-09-19T05:19:39;15.80;99.90
10306;DHT22;5198;52.382;9.020;2023-09-19T05:27:52;15.70;99.90
10306;DHT22;5198;52.382;9.020;2023-09-19T05:36:18;15.70;99.90
10306;DHT22;5198;52.382;9.020;2023-09-19T05:40:21;15.70;99.90
10306;DHT22;5198;52.382;9.020;2023-09-19T05:44:25;15.60;99.90
10306;DHT22;5198;52.382;9.020;2023-09-19T05:48:28;15.70;99.90
10306;DHT22;5198;52.382;9.020;2023-09-19T05:52:39;15.60;99.90
10306;DHT22;5198;52.382;9.020;2023-09-19T05:56:42;15.60;99.90
10306;DHT22;5198;52.382;9.020;2023-09-19T06:00:48;15.50;99.90
10306;DHT22;5198;52.382;9.020;2023-09-19T06:04:52;15.60;99.90
10306;DHT22;5198;52.382;9.020;2023-09-19T06:08:58;15.60;99.90
10306;DHT22;5198;52.382;9.020;2023-09-19T06:13:03;15.50;99.90
10306;DHT22;5198;52.382;9.020;2023-09-19T06:17:08;15.50;99.90
10306;DHT22;5198;52.382;9.020;2023-09-19T06:21:12;15.60;99.90
10306;DHT22;5198;52.382;9.020;2023-09-19T06:25:17;15.50;99.90
10306;DHT22;5198;52.382;9.020;2023-09-19T06:29:35;15.60;99.90
10306;DHT22;5198;52.382;9.020;2023-09-19T06:33:39;15.60;99.90
10306;DHT22;5198;52.382;9.020;2023-09-19T06:37:42;15.60;99.90
10306;DHT22;5198;52.382;9.020;2023-09-19T06:41:47;15.60;99.90
10306;DHT22;5198;52.382;9.020;2023-09-19T06:45:50;15.70;99.90
10306;DHT22;5198;52.382;9.020;2023-09-19T06:50:01;15.70;99.90
10306;DHT22;5198;52.382;9.020;2023-09-19T06:54:12;15.70;99.90
10306;DHT22;5198;52.382;9.020;2023-09-19T06:58:25;15.70;99.90
10306;DHT22;5198;52.382;9.020;2023-09-19T07:06:56;15.80;99.90
10306;DHT22;5198;52.382;9.020;2023-09-19T07:10:59;15.90;99.90
10306;DHT22;5198;52.382;9.020;2023-09-19T07:15:04;16.00;99.90
10306;DHT22;5198;52.382;9.020;2023-09-19T07:19:08;16.00;99.90
10306;DHT22;5198;52.382;9.020;2023-09-19T07:23:10;16.20;99.90
10306;DHT22;5198;52.382;9.020;2023-09-19T07:27:15;16.30;99.90
10306;DHT22;5198;52.382;9.020;2023-09-19T07:31:20;16.40;99.90
10306;DHT22;5198;52.382;9.020;2023-09-19T07:35:24;16.50;99.90
10306;DHT22;5198;52.382;9.020;2023-09-19T07:39:28;16.60;99.90
10306;DHT22;5198;52.382;9.020;2023-09-19T07:43:31;16.70;99.90
10306;DHT22;5198;52.382;9.020;2023-09-19T07:47:36;16.70;99.90
10306;DHT22;5198;52.382;9.020;2023-09-19T07:51:39;16.80;99.90
10306;DHT22;5198;52.382;9.020;2023-09-19T07:55:42;16.80;99.90
10306;DHT22;5198;52.382;9.020;2023-09-19T07:59:50;16.80;99.90
10306;DHT22;5198;52.382;9.020;2023-09-19T08:03:54;16.80;99.90
10306;DHT22;5198;52.382;9.020;2023-09-19T08:07:58;16.90;99.90
10306;DHT22;5198;52.382;9.020;2023-09-19T08:12:02;17.00;99.90
10306;DHT22;5198;52.382;9.020;2023-09-19T08:16:14;17.20;99.90
10306;DHT22;5198;52.382;9.020;2023-09-19T08:20:37;17.40;99.90
10306;DHT22;5198;52.382;9.020;2023-09-19T08:24:40;17.50;99.90
10306;DHT22;5198;52.382;9.020;2023-09-19T08:28:45;17.70;99.90
10306;DHT22;5198;52.382;9.020;2023-09-19T08:32:50;17.80;99.90
10306;DHT22;5198;52.382;9.020;2023-09-19T08:36:54;18.00;99.90
10306;DHT22;5198;52.382;9.020;2023-09-19T08:41:01;18.00;99.90
10306;DHT22;5198;52.382;9.020;2023-09-19T08:45:08;18.00;99.90
10306;DHT22;5198;52.382;9.020;2023-09-19T08:49:15;18.10;99.90
10306;DHT22;5198;52.382;9.020;2023-09-19T08:53:27;18.20;99.90
10306;DHT22;5198;52.382;9.020;2023-09-19T08:57:34;18.20;99.90
10306;DHT22;5198;52.382;9.020;2023-09-19T09:01:41;18.30;99.90
10306;DHT22;5198;52.382;9.020;2023-09-19T09:05:44;18.30;99.90
10306;DHT22;5198;52.382;9.020;2023-09-19T09:09:50;18.30;99.90
10306;DHT22;5198;52.382;9.020;2023-09-19T09:13:59;18.30;99.90
10306;DHT22;5198;52.382;9.020;2023-09-19T09:18:03;18.40;99.90
10306;DHT22;5198;52.382;9.020;2023-09-19T09:22:07;18.40;99.90
10306;DHT22;5198;52.382;9.020;2023-09-19T09:26:11;18.50;99.90
10306;DHT22;5198;52.382;9.020;2023-09-19T09:30:19;18.60;99.90
10306;DHT22;5198;52.382;9.020;2023-09-19T09:34:51;18.80;99.90
10306;DHT22;5198;52.382;9.020;2023-09-19T09:38:54;18.90;99.90
10306;DHT22;5198;52.382;9.020;2023-09-19T09:42:59;19.00;99.90
10306;DHT22;5198;52.382;9.020;2023-09-19T09:47:02;19.10;99.90
10306;DHT22;5198;52.382;9.020;2023-09-19T09:51:29;19.20;99.90
10306;DHT22;5198;52.382;9.020;2023-09-19T09:59:58;19.30;99.90
10306;DHT22;5198;52.382;9.020;2023-09-19T10:04:32;19.40;99.90
10306;DHT22;5198;52.382;9.020;2023-09-19T10:08:38;19.50;99.90
10306;DHT22;5198;52.382;9.020;2023-09-19T10:12:43;19.60;99.90
10306;DHT22;5198;52.382;9.020;2023-09-19T10:16:58;19.70;99.90
10306;DHT22;5198;52.382;9.020;2023-09-19T10:21:05;19.80;99.90
10306;DHT22;5198;52.382;9.020;2023-09-19T10:25:10;19.80;99.90
10306;DHT22;5198;52.382;9.020;2023-09-19T10:29:14;20.00;99.90
10306;DHT22;5198;52.382;9.020;2023-09-19T10:33:20;20.10;99.90
10306;DHT22;5198;52.382;9.020;2023-09-19T10:37:23;20.20;99.90
10306;DHT22;5198;52.382;9.020;2023-09-19T10:41:28;20.30;99.90
10306;DHT22;5198;52.382;9.020;2023-09-19T10:45:33;20.40;99.90
10306;DHT22;5198;52.382;9.020;2023-09-19T10:49:44;20.50;99.90
10306;DHT22;5198;52.382;9.020;2023-09-19T10:53:49;20.50;99.90
10306;DHT22;5198;52.382;9.020;2023-09-19T10:57:53;20.60;99.90
10306;DHT22;5198;52.382;9.020;2023-09-19T11:02:15;20.70;99.90
10306;DHT22;5198;52.382;9.020;2023-09-19T11:14:47;20.90;99.90
10306;DHT22;5198;52.382;9.020;2023-09-19T11:18:57;20.90;99.90
10306;DHT22;5198;52.382;9.020;2023-09-19T11:27:30;20.80;99.90
10306;DHT22;5198;52.382;9.020;2023-09-19T11:36:03;20.90;99.90
10306;DHT22;5198;52.382;9.020;2023-09-19T11:40:08;21.00;99.90
10306;DHT22;5198;52.382;9.020;2023-09-19T11:48:43;21.00;99.90
10306;DHT22;5198;52.382;9.020;2023-09-19T11:52:49;20.90;99.90
10306;DHT22;5198;52.382;9.020;2023-09-19T11:56:54;20.80;99.90
10306;DHT22;5198;52.382;9.020;2023-09-19T12:01:01;20.80;99.90
10306;DHT22;5198;52.382;9.020;2023-09-19T12:05:09;20.80;99.90
10306;DHT22;5198;52.382;9.020;2023-09-19T12:22:40;20.90;99.90
10306;DHT22;5198;52.382;9.020;2023-09-19T12:26:46;20.90;99.90
10306;DHT22;5198;52.382;9.020;2023-09-19T12:30:53;20.90;99.90
10306;DHT22;5198;52.382;9.020;2023-09-19T12:34:57;20.90;99.90
10306;DHT22;5198;52.382;9.020;2023-09-19T12:43:26;20.90;99.90
10306;DHT22;5198;52.382;9.020;2023-09-19T12:47:34;21.00;99.90
10306;DHT22;5198;52.382;9.020;2023-09-19T12:51:43;21.10;99.90
10306;DHT22;5198;52.382;9.020;2023-09-19T13:16:06;21.30;99.90
10306;DHT22;5198;52.382;9.020;2023-09-19T13:20:22;21.30;99.90
10306;DHT22;5198;52.382;9.020;2023-09-19T13:24:41;21.30;99.90
10306;DHT22;5198;52.382;9.020;2023-09-19T13:28:44;21.30;99.90
10306;DHT22;5198;52.382;9.020;2023-09-19T13:32:51;21.30;99.90
10306;DHT22;5198;52.382;9.020;2023-09-19T13:41:03;21.20;99.90
10306;DHT22;5198;52.382;9.020;2023-09-19T13:45:06;21.20;99.90
10306;DHT22;5198;52.382;9.020;2023-09-19T13:53:50;21.20;99.90
10306;DHT22;5198;52.382;9.020;2023-09-19T13:57:53;21.20;99.90
10306;DHT22;5198;52.382;9.020;2023-09-19T14:01:57;21.20;99.90
10306;DHT22;5198;52.382;9.020;2023-09-19T14:06:00;21.30;99.90
10306;DHT22;5198;52.382;9.020;2023-09-19T14:10:06;21.40;99.90
10306;DHT22;5198;52.382;9.020;2023-09-19T14:14:10;21.40;99.90
10306;DHT22;5198;52.382;9.020;2023-09-19T14:18:13;21.40;99.90
10306;DHT22;5198;52.382;9.020;2023-09-19T14:22:16;21.40;99.90
10306;DHT22;5198;52.382;9.020;2023-09-19T14:26:21;21.40;99.90
10306;DHT22;5198;52.382;9.020;2023-09-19T14:30:25;21.40;99.90
10306;DHT22;5198;52.382;9.020;2023-09-19T14:34:28;21.40;99.90
10306;DHT22;5198;52.382;9.020;2023-09-19T14:38:31;21.40;99.90
10306;DHT22;5198;52.382;9.020;2023-09-19T14:42:38;21.40;99.90
10306;DHT22;5198;52.382;9.020;2023-09-19T14:51:03;21.50;99.90
10306;DHT22;5198;52.382;9.020;2023-09-19T14:55:07;21.60;99.90
10306;DHT22;5198;52.382;9.020;2023-09-19T14:59:14;21.70;99.90
10306;DHT22;5198;52.382;9.020;2023-09-19T15:08:00;21.80;99.90
10306;DHT22;5198;52.382;9.020;2023-09-19T15:12:05;21.90;99.90
10306;DHT22;5198;52.382;9.020;2023-09-19T15:16:09;22.00;99.90
10306;DHT22;5198;52.382;9.020;2023-09-19T15:24:43;22.00;99.90
10306;DHT22;5198;52.382;9.020;2023-09-19T15:28:46;21.80;99.90
10306;DHT22;5198;52.382;9.020;2023-09-19T15:32:58;21.70;99.90
10306;DHT22;5198;52.382;9.020;2023-09-19T15:37:01;21.60;99.90
10306;DHT22;5198;52.382;9.020;2023-09-19T15:41:04;21.50;99.90
10306;DHT22;5198;52.382;9.020;2023-09-19T15:49:37;21.20;99.90
10306;DHT22;5198;52.382;9.020;2023-09-19T15:53:42;21.20;99.90
10306;DHT22;5198;52.382;9.020;2023-09-19T16:22:34;20.80;99.90
10306;DHT22;5198;52.382;9.020;2023-09-19T16:31:40;20.70;99.90
10306;DHT22;5198;52.382;9.020;2023-09-19T16:40:17;20.50;99.90
10306;DHT22;5198;52.382;9.020;2023-09-19T16:44:21;20.50;99.90
10306;DHT22;5198;52.382;9.020;2023-09-19T16:48:24;20.50;99.90
10306;DHT22;5198;52.382;9.020;2023-09-19T16:52:28;20.40;99.90
10306;DHT22;5198;52.382;9.020;2023-09-19T16:56:32;20.40;99.90
10306;DHT22;5198;52.382;9.020;2023-09-19T17:00:38;20.30;99.90
10306;DHT22;5198;52.382;9.020;2023-09-19T17:08:49;20.20;99.90
10306;DHT22;5198;52.382;9.020;2023-09-19T17:12:54;20.20;99.90
10306;DHT22;5198;52.382;9.020;2023-09-19T17:16:59;20.10;99.90
10306;DHT22;5198;52.382;9.020;2023-09-19T17:21:10;20.10;99.90
10306;DHT22;5198;52.382;9.020;2023-09-19T17:25:15;20.00;99.90
10306;DHT22;5198;52.382;9.020;2023-09-19T17:29:34;20.00;99.90
10306;DHT22;5198;52.382;9.020;2023-09-19T17:33:39;20.00;99.90
10306;DHT22;5198;52.382;9.020;2023-09-19T17:37:44;20.00;99.90
10306;DHT22;5198;52.382;9.020;2023-09-19T17:41:48;19.90;99.90
10306;DHT22;5198;52.382;9.020;2023-09-19T17:46:06;19.90;99.90
10306;DHT22;5198;52.382;9.020;2023-09-19T17:50:18;19.90;99.90
10306;DHT22;5198;52.382;9.020;2023-09-19T17:58:27;19.80;99.90
10306;DHT22;5198;52.382;9.020;2023-09-19T18:02:31;19.80;99.90
10306;DHT22;5198;52.382;9.020;2023-09-19T18:06:37;19.80;99.90
10306;DHT22;5198;52.382;9.020;2023-09-19T18:10:40;19.80;99.90
10306;DHT22;5198;52.382;9.020;2023-09-19T18:14:43;19.70;99.90
10306;DHT22;5198;52.382;9.020;2023-09-19T18:18:54;19.70;99.90
10306;DHT22;5198;52.382;9.020;2023-09-19T18:23:04;19.70;99.90
10306;DHT22;5198;52.382;9.020;2023-09-19T18:27:13;19.60;99.90
10306;DHT22;5198;52.382;9.020;2023-09-19T18:31:24;19.60;99.90
10306;DHT22;5198;52.382;9.020;2023-09-19T18:35:31;19.60;99.90
10306;DHT22;5198;52.382;9.020;2023-09-19T18:39:36;19.60;99.90
10306;DHT22;5198;52.382;9.020;2023-09-19T18:43:51;19.60;99.90
10306;DHT22;5198;52.382;9.020;2023-09-19T18:47:54;19.60;99.90
10306;DHT22;5198;52.382;9.020;2023-09-19T18:51:58;19.60;99.90
10306;DHT22;5198;52.382;9.020;2023-09-19T19:04:55;19.50;99.90
10306;DHT22;5198;52.382;9.020;2023-09-19T19:09:01;19.50;99.90
10306;DHT22;5198;52.382;9.020;2023-09-19T19:13:05;19.50;99.90
10306;DHT22;5198;52.382;9.020;2023-09-19T19:17:09;19.50;99.90
10306;DHT22;5198;52.382;9.020;2023-09-19T19:21:14;19.50;99.90
10306;DHT22;5198;52.382;9.020;2023-09-19T19:25:20;19.50;99.90
10306;DHT22;5198;52.382;9.020;2023-09-19T19:29:24;19.50;99.90
10306;DHT22;5198;52.382;9.020;2023-09-19T19:33:32;19.50;99.90
10306;DHT22;5198;52.382;9.020;2023-09-19T19:37:36;19.50;99.90
10306;DHT22;5198;52.382;9.020;2023-09-19T19:41:41;19.40;99.90
10306;DHT22;5198;52.382;9.020;2023-09-19T19:45:52;19.50;99.90
10306;DHT22;5198;52.382;9.020;2023-09-19T19:49:55;19.40;99.90
10306;DHT22;5198;52.382;9.020;2023-09-19T19:54:00;19.40;99.90
10306;DHT22;5198;52.382;9.020;2023-09-19T19:58:11;19.40;99.90
10306;DHT22;5198;52.382;9.020;2023-09-19T20:02:17;19.40;99.90
10306;DHT22;5198;52.382;9.020;2023-09-19T20:06:21;19.30;99.90
10306;DHT22;5198;52.382;9.020;2023-09-19T20:10:27;19.30;99.90
10306;DHT22;5198;52.382;9.020;2023-09-19T20:14:33;19.30;99.90
10306;DHT22;5198;52.382;9.020;2023-09-19T20:18:39;19.30;99.90
10306;DHT22;5198;52.382;9.020;2023-09-19T20:22:44;19.30;99.90
10306;DHT22;5198;52.382;9.020;2023-09-19T20:31:19;19.20;99.90
10306;DHT22;5198;52.382;9.020;2023-09-19T20:39:49;19.20;99.90
10306;DHT22;5198;52.382;9.020;2023-09-19T20:48:37;19.20;99.90
10306;DHT22;5198;52.382;9.020;2023-09-19T20:52:53;19.10;99.90
10306;DHT22;5198;52.382;9.020;2023-09-19T21:01:32;19.00;99.90
10306;DHT22;5198;52.382;9.020;2023-09-19T21:10:25;19.00;99.90
10306;DHT22;5198;52.382;9.020;2023-09-19T21:14:35;19.00;99.90
10306;DHT22;5198;52.382;9.020;2023-09-19T21:18:43;18.90;99.90
10306;DHT22;5198;52.382;9.020;2023-09-19T21:27:19;18.90;99.90
10306;DHT22;5198;52.382;9.020;2023-09-19T21:31:33;18.90;99.90
10306;DHT22;5198;52.382;9.020;2023-09-19T21:39:45;18.90;99.90
10306;DHT22;5198;52.382;9.020;2023-09-19T21:43:49;18.90;99.90
10306;DHT22;5198;52.382;9.020;2023-09-19T21:47:53;18.90;99.90
10306;DHT22;5198;52.382;9.020;2023-09-19T21:51:56;18.90;99.90
10306;DHT22;5198;52.382;9.020;2023-09-19T21:55:59;18.80;99.90
10306;DHT22;5198;52.382;9.020;2023-09-19T22:00:05;18.80;99.90
10306;DHT22;5198;52.382;9.020;2023-09-19T22:04:27;18.80;99.90
10306;DHT22;5198;52.382;9.020;2023-09-19T22:08:31;18.80;99.90
10306;DHT22;5198;52.382;9.020;2023-09-19T22:12:34;18.80;99.90
10306;DHT22;5198;52.382;9.020;2023-09-19T22:16:39;18.80;99.90
10306;DHT22;5198;52.382;9.020;2023-09-19T22:20:44;18.80;99.90
10306;DHT22;5198;52.382;9.020;2023-09-19T22:24:51;18.80;99.90
10306;DHT22;5198;52.382;9.020;2023-09-19T22:33:22;18.80;99.90
10306;DHT22;5198;52.382;9.020;2023-09-19T22:37:26;18.80;99.90
10306;DHT22;5198;52.382;9.020;2023-09-19T22:41:30;18.80;99.90
10306;DHT22;5198;52.382;9.020;2023-09-19T22:45:34;18.80;99.90
10306;DHT22;5198;52.382;9.020;2023-09-19T22:49:39;18.80;99.90
10306;DHT22;5198;52.382;9.020;2023-09-19T22:53:42;18.80;99.90
10306;DHT22;5198;52.382;9.020;2023-09-19T22:57:46;18.80;99.90
10306;DHT22;5198;52.382;9.020;2023-09-19T23:01:49;18.70;99.90
10306;DHT22;5198;52.382;9.020;2023-09-19T23:05:56;18.80;99.90
10306;DHT22;5198;52.382;9.020;2023-09-19T23:10:00;18.70;99.90
10306;DHT22;5198;52.382;9.020;2023-09-19T23:14:07;18.70;99.90
10306;DHT22;5198;52.382;9.020;2023-09-19T23:18:11;18.70;99.90
10306;DHT22;5198;52.382;9.020;2023-09-19T23:22:16;18.70;99.90
10306;DHT22;5198;52.382;9.020;2023-09-19T23:31:00;18.70;99.90
10306;DHT22;5198;52.382;9.020;2023-09-19T23:35:07;18.80;99.90
10306;DHT22;5198;52.382;9.020;2023-09-19T23:39:19;18.80;99.90
10306;DHT22;5198;52.382;9.020;2023-09-19T23:43:22;18.80;99.90
10306;DHT22;5198;52.382;9.020;2023-09-19T23:47:25;18.80;99.90
10306;DHT22;5198;52.382;9.020;2023-09-19T23:51:28;18.80;99.90
